createdAt,value
2018-12-25T00:00:46.035Z,2.90
2018-12-25T00:03:48.875Z,3.00
2018-12-25T00:06:51.812Z,3.00
2018-12-25T00:09:54.603Z,3.00
2018-12-25T00:12:57.528Z,3.10
2018-12-25T00:16:03.186Z,3.00
2018-12-25T00:19:07.810Z,2.90
2018-12-25T00:22:10.682Z,2.90
2018-12-25T00:25:14.888Z,2.90
2018-12-25T00:28:18.586Z,2.90
2018-12-25T00:31:21.571Z,2.90
2018-12-25T00:34:24.363Z,2.90
2018-12-25T00:37:27.315Z,2.90
2018-12-25T00:40:30.229Z,2.90
2018-12-25T00:43:33.074Z,2.90
2018-12-25T00:46:36.027Z,2.90
2018-12-25T00:49:39.107Z,2.80
2018-12-25T00:52:41.907Z,2.80
2018-12-25T00:55:44.792Z,2.80
2018-12-25T00:58:47.695Z,2.80
2018-12-25T01:01:50.921Z,2.80
2018-12-25T01:04:54.007Z,2.80
2018-12-25T01:07:57.150Z,2.90
2018-12-25T01:10:59.953Z,3.00
2018-12-25T01:14:02.787Z,3.00
2018-12-25T01:17:05.587Z,3.10
2018-12-25T01:20:08.419Z,3.10
2018-12-25T01:23:11.207Z,3.20
2018-12-25T01:26:14.027Z,3.20
2018-12-25T01:29:16.899Z,3.20
2018-12-25T01:32:19.725Z,3.20
2018-12-25T01:35:22.507Z,3.20
2018-12-25T01:38:25.369Z,3.20
2018-12-25T01:41:28.251Z,3.30
2018-12-25T01:44:31.219Z,3.30
2018-12-25T01:47:34.004Z,3.30
2018-12-25T01:50:36.963Z,3.40
2018-12-25T01:53:40.067Z,3.40
2018-12-25T01:56:43.370Z,3.50
2018-12-25T01:59:46.607Z,3.50
2018-12-25T02:02:49.779Z,3.50
2018-12-25T02:05:52.803Z,3.50
2018-12-25T02:08:57.154Z,3.60
2018-12-25T02:12:00.310Z,3.50
2018-12-25T02:15:03.651Z,3.50
2018-12-25T02:18:06.709Z,3.60
2018-12-25T02:21:09.801Z,3.50
2018-12-25T02:24:12.992Z,3.50
2018-12-25T02:27:16.088Z,3.50
2018-12-25T02:30:19.380Z,3.50
2018-12-25T02:33:22.474Z,3.60
2018-12-25T02:36:25.572Z,3.60
2018-12-25T02:39:28.855Z,3.60
2018-12-25T02:42:31.960Z,3.60
2018-12-25T02:45:35.051Z,3.60
2018-12-25T02:48:38.139Z,3.60
2018-12-25T02:51:41.247Z,3.60
2018-12-25T02:54:44.325Z,3.70
2018-12-25T02:57:47.523Z,3.70
2018-12-25T03:00:50.615Z,3.60
2018-12-25T03:03:53.711Z,3.70
2018-12-25T03:06:56.901Z,3.60
2018-12-25T03:09:59.999Z,3.60
2018-12-25T03:13:03.087Z,3.70
2018-12-25T03:16:06.279Z,3.70
2018-12-25T03:19:09.379Z,3.70
2018-12-25T03:22:12.474Z,3.70
2018-12-25T03:25:15.658Z,3.80
2018-12-25T03:28:18.881Z,3.70
2018-12-25T03:31:22.157Z,3.70
2018-12-25T03:34:25.495Z,3.80
2018-12-25T03:37:28.643Z,3.70
2018-12-25T03:40:31.994Z,3.80
2018-12-25T03:43:35.239Z,3.70
2018-12-25T03:46:38.583Z,3.70
2018-12-25T03:49:41.632Z,3.70
2018-12-25T03:52:44.873Z,3.80
2018-12-25T03:55:48.020Z,3.80
2018-12-25T03:58:51.262Z,3.80
2018-12-25T04:01:54.413Z,3.90
2018-12-25T04:04:57.662Z,3.90
2018-12-25T04:08:00.461Z,3.90
2018-12-25T04:11:03.627Z,3.90
2018-12-25T04:14:06.753Z,3.90
2018-12-25T04:17:09.887Z,3.80
2018-12-25T04:20:19.662Z,3.90
2018-12-25T04:23:18.110Z,3.90
2018-12-25T04:26:21.168Z,3.90
2018-12-25T04:29:24.621Z,3.80
2018-12-25T04:32:27.858Z,3.90
2018-12-25T04:35:31.106Z,3.90
2018-12-25T04:38:34.154Z,3.90
2018-12-25T04:41:37.395Z,3.80
2018-12-25T04:44:40.544Z,3.90
2018-12-25T04:47:43.990Z,3.90
2018-12-25T04:50:47.035Z,3.90
2018-12-25T04:53:50.240Z,3.90
2018-12-25T04:56:53.324Z,3.90
2018-12-25T04:59:56.632Z,3.90
2018-12-25T05:02:59.814Z,4.00
2018-12-25T05:06:02.952Z,3.90
2018-12-25T05:09:06.823Z,3.90
2018-12-25T05:12:10.063Z,3.90
2018-12-25T05:15:13.107Z,3.90
2018-12-25T05:18:16.353Z,3.90
2018-12-25T05:21:19.395Z,3.90
2018-12-25T05:24:22.747Z,3.90
2018-12-25T05:27:25.787Z,4.00
2018-12-25T05:30:29.238Z,4.00
2018-12-25T05:33:32.279Z,3.90
2018-12-25T05:36:35.523Z,3.90
2018-12-25T05:39:38.572Z,4.00
2018-12-25T05:42:41.723Z,4.00
2018-12-25T05:45:44.856Z,4.00
2018-12-25T05:48:47.993Z,4.00
2018-12-25T05:51:51.139Z,4.00
2018-12-25T05:54:54.459Z,4.00
2018-12-25T05:57:57.634Z,4.10
2018-12-25T06:01:00.978Z,4.10
2018-12-25T06:04:04.026Z,4.10
2018-12-25T06:07:07.223Z,4.10
2018-12-25T06:10:10.411Z,4.10
2018-12-25T06:13:13.510Z,4.10
2018-12-25T06:16:16.599Z,4.10
2018-12-25T06:19:19.799Z,4.10
2018-12-25T06:22:22.935Z,4.10
2018-12-25T06:25:25.985Z,4.00
2018-12-25T06:28:29.175Z,4.00
2018-12-25T06:31:32.366Z,3.90
2018-12-25T06:34:35.671Z,3.90
2018-12-25T06:37:38.856Z,3.90
2018-12-25T06:40:41.962Z,3.80
2018-12-25T06:43:45.047Z,3.80
2018-12-25T06:46:48.143Z,3.80
2018-12-25T06:49:51.239Z,3.80
2018-12-25T06:52:56.311Z,3.80
2018-12-25T06:55:59.467Z,3.80
2018-12-25T06:59:02.762Z,3.70
2018-12-25T07:02:05.858Z,3.70
2018-12-25T07:05:09.050Z,3.70
2018-12-25T07:08:12.247Z,3.70
2018-12-25T07:11:15.343Z,3.70
2018-12-25T07:14:18.435Z,3.70
2018-12-25T07:17:21.732Z,3.60
2018-12-25T07:20:24.823Z,3.60
2018-12-25T07:23:27.918Z,3.60
2018-12-25T07:26:31.009Z,3.60
2018-12-25T07:29:34.102Z,3.60
2018-12-25T07:32:37.295Z,3.60
2018-12-25T07:35:40.423Z,3.60
2018-12-25T07:38:43.478Z,3.60
2018-12-25T07:41:46.706Z,3.60
2018-12-25T07:44:50.227Z,3.60
2018-12-25T07:47:53.371Z,3.60
2018-12-25T07:50:56.603Z,3.60
2018-12-25T07:53:59.663Z,3.60
2018-12-25T07:57:02.891Z,3.60
2018-12-25T08:00:06.460Z,3.60
2018-12-25T08:03:09.560Z,3.70
2018-12-25T08:06:12.799Z,3.70
2018-12-25T08:09:15.843Z,3.70
2018-12-25T08:12:20.190Z,3.70
2018-12-25T08:15:23.359Z,3.70
2018-12-25T08:18:26.487Z,3.80
2018-12-25T08:21:29.576Z,3.80
2018-12-25T08:24:32.676Z,3.80
2018-12-25T08:27:35.930Z,3.90
2018-12-25T08:30:39.298Z,3.90
2018-12-25T08:33:42.527Z,4.00
2018-12-25T08:36:45.901Z,3.90
2018-12-25T08:39:49.119Z,4.00
2018-12-25T08:42:52.346Z,4.00
2018-12-25T08:45:55.414Z,4.00
2018-12-25T08:48:58.546Z,4.00
2018-12-25T08:52:01.599Z,4.00
2018-12-25T08:55:04.795Z,4.00
2018-12-25T08:58:07.891Z,4.10
2018-12-25T09:01:10.978Z,4.10
2018-12-25T09:04:14.071Z,4.00
2018-12-25T09:07:17.162Z,4.10
2018-12-25T09:10:20.256Z,4.10
2018-12-25T09:13:23.347Z,4.10
2018-12-25T09:16:26.193Z,4.10
2018-12-25T09:19:29.438Z,4.10
2018-12-25T09:22:32.563Z,4.10
2018-12-25T09:25:35.618Z,4.10
2018-12-25T09:28:38.717Z,4.10
2018-12-25T09:31:41.902Z,4.20
2018-12-25T09:34:45.004Z,4.10
2018-12-25T09:37:48.242Z,4.20
2018-12-25T09:40:51.282Z,4.10
2018-12-25T09:43:54.379Z,4.10
2018-12-25T09:46:57.470Z,4.10
2018-12-25T09:50:00.563Z,4.20
2018-12-25T09:53:03.764Z,4.20
2018-12-25T09:56:06.854Z,4.30
2018-12-25T09:59:09.982Z,4.30
2018-12-25T10:02:13.143Z,4.30
2018-12-25T10:05:16.235Z,4.40
2018-12-25T10:08:19.056Z,4.40
2018-12-25T10:11:23.730Z,4.40
2018-12-25T10:14:26.681Z,4.50
2018-12-25T10:17:29.530Z,4.50
2018-12-25T10:20:32.356Z,4.60
2018-12-25T10:23:35.167Z,4.70
2018-12-25T10:26:37.985Z,4.70
2018-12-25T10:29:40.873Z,4.80
2018-12-25T10:32:43.688Z,4.90
2018-12-25T10:35:46.508Z,5.10
2018-12-25T10:38:49.331Z,5.20
2018-12-25T10:41:52.144Z,5.30
2018-12-25T10:44:54.963Z,5.20
2018-12-25T10:47:57.789Z,5.20
2018-12-25T10:51:00.640Z,5.20
2018-12-25T10:54:03.459Z,5.20
2018-12-25T10:57:06.300Z,5.30
2018-12-25T11:00:11.892Z,5.50
2018-12-25T11:03:14.729Z,5.70
2018-12-25T11:06:17.572Z,5.70
2018-12-25T11:09:20.413Z,5.70
2018-12-25T11:12:23.234Z,5.70
2018-12-25T11:15:26.050Z,5.70
2018-12-25T11:18:28.901Z,5.80
2018-12-25T11:21:31.733Z,5.80
2018-12-25T11:24:34.580Z,5.80
2018-12-25T11:27:37.387Z,5.80
2018-12-25T11:30:40.204Z,5.90
2018-12-25T11:33:43.060Z,5.90
2018-12-25T11:36:46.005Z,6.00
2018-12-25T11:39:49.696Z,6.00
2018-12-25T11:42:52.675Z,6.00
2018-12-25T11:45:55.528Z,6.00
2018-12-25T11:48:58.352Z,6.10
2018-12-25T11:52:01.169Z,6.20
2018-12-25T11:55:04.098Z,6.20
2018-12-25T11:58:06.876Z,6.10
2018-12-25T12:01:09.868Z,6.10
2018-12-25T12:04:12.692Z,6.00
2018-12-25T12:07:15.608Z,5.90
2018-12-25T12:10:18.423Z,5.90
2018-12-25T12:13:21.366Z,5.80
2018-12-25T12:16:24.172Z,5.80
2018-12-25T12:19:27.105Z,5.70
2018-12-25T12:22:36.951Z,5.70
2018-12-25T12:25:34.660Z,5.70
2018-12-25T12:28:37.472Z,5.70
2018-12-25T12:31:40.408Z,5.70
2018-12-25T12:34:43.220Z,5.70
2018-12-25T12:37:46.176Z,5.70
2018-12-25T12:40:48.989Z,5.70
2018-12-25T12:43:51.919Z,5.60
2018-12-25T12:46:54.728Z,5.60
2018-12-25T12:49:57.652Z,5.50
2018-12-25T12:53:00.471Z,5.50
2018-12-25T12:56:03.291Z,5.50
2018-12-25T12:59:06.104Z,5.50
2018-12-25T13:02:08.930Z,5.40
2018-12-25T13:05:11.747Z,5.40
2018-12-25T13:08:14.564Z,5.40
2018-12-25T13:11:17.383Z,5.40
2018-12-25T13:14:20.196Z,5.30
2018-12-25T13:17:23.012Z,5.30
2018-12-25T13:20:25.834Z,5.40
2018-12-25T13:23:28.652Z,5.30
2018-12-25T13:26:31.608Z,5.30
2018-12-25T13:29:34.421Z,5.40
2018-12-25T13:32:37.245Z,5.40
2018-12-25T13:35:40.060Z,5.40
2018-12-25T13:38:42.883Z,5.40
2018-12-25T13:41:45.704Z,5.50
2018-12-25T13:44:48.536Z,5.40
2018-12-25T13:47:51.396Z,5.50
2018-12-25T13:50:54.212Z,5.50
2018-12-25T13:53:57.037Z,5.50
2018-12-25T13:56:59.855Z,5.50
2018-12-25T14:00:03.009Z,5.60
2018-12-25T14:03:06.923Z,5.60
2018-12-25T14:06:09.776Z,5.50
2018-12-25T14:09:12.604Z,5.50
2018-12-25T14:12:15.688Z,5.50
2018-12-25T14:15:18.500Z,5.60
2018-12-25T14:18:21.352Z,5.60
2018-12-25T14:21:24.167Z,5.60
2018-12-25T14:24:27.025Z,5.60
2018-12-25T14:27:29.848Z,5.60
2018-12-25T14:30:32.704Z,5.50
2018-12-25T14:33:35.517Z,5.60
2018-12-25T14:36:38.541Z,5.60
2018-12-25T14:39:41.356Z,5.50
2018-12-25T14:42:44.229Z,5.50
2018-12-25T14:45:47.040Z,5.50
2018-12-25T14:48:49.904Z,5.50
2018-12-25T14:51:52.724Z,5.50
2018-12-25T14:54:55.589Z,5.50
2018-12-25T14:57:58.402Z,5.40
2018-12-25T15:01:01.411Z,5.40
2018-12-25T15:04:04.219Z,5.40
2018-12-25T15:07:07.472Z,5.40
2018-12-25T15:10:10.532Z,5.40
2018-12-25T15:13:13.860Z,5.40
2018-12-25T15:16:17.024Z,5.40
2018-12-25T15:19:20.116Z,5.40
2018-12-25T15:22:23.308Z,5.40
2018-12-25T15:25:26.403Z,5.40
2018-12-25T15:28:29.624Z,5.40
2018-12-25T15:31:32.795Z,5.40
2018-12-25T15:34:36.020Z,5.40
2018-12-25T15:37:39.279Z,5.40
2018-12-25T15:40:42.484Z,5.40
2018-12-25T15:43:45.669Z,5.50
2018-12-25T15:46:48.871Z,5.40
2018-12-25T15:49:52.060Z,5.50
2018-12-25T15:52:55.264Z,5.40
2018-12-25T15:55:58.557Z,5.40
2018-12-25T15:59:01.751Z,5.50
2018-12-25T16:02:04.968Z,5.40
2018-12-25T16:05:08.139Z,5.50
2018-12-25T16:08:10.979Z,5.50
2018-12-25T16:11:14.168Z,5.50
2018-12-25T16:14:17.354Z,5.50
2018-12-25T16:17:20.451Z,5.50
2018-12-25T16:20:23.590Z,5.50
2018-12-25T16:23:26.735Z,5.60
2018-12-25T16:26:29.834Z,5.50
2018-12-25T16:29:32.923Z,5.50
2018-12-25T16:32:36.023Z,5.50
2018-12-25T16:35:39.211Z,5.50
2018-12-25T16:38:42.414Z,5.50
2018-12-25T16:41:45.499Z,5.50
2018-12-25T16:44:48.699Z,5.50
2018-12-25T16:47:51.787Z,5.50
2018-12-25T16:50:54.886Z,5.50
2018-12-25T16:53:58.075Z,5.50
2018-12-25T16:57:01.170Z,5.50
2018-12-25T17:00:05.180Z,5.50
2018-12-25T17:03:08.280Z,5.50
2018-12-25T17:06:11.371Z,5.50
2018-12-25T17:09:14.567Z,5.50
2018-12-25T17:12:17.659Z,5.50
2018-12-25T17:15:20.855Z,5.50
2018-12-25T17:18:23.947Z,5.50
2018-12-25T17:21:27.383Z,5.50
2018-12-25T17:24:30.471Z,5.50
2018-12-25T17:27:33.630Z,5.50
2018-12-25T17:30:36.863Z,5.50
2018-12-25T17:33:40.023Z,5.40
2018-12-25T17:36:43.262Z,5.40
2018-12-25T17:39:46.311Z,5.40
2018-12-25T17:42:49.658Z,5.50
2018-12-25T17:45:52.702Z,5.50
2018-12-25T17:48:55.930Z,5.50
2018-12-25T17:51:58.987Z,5.50
2018-12-25T17:55:02.122Z,5.50
2018-12-25T17:58:05.175Z,5.60
2018-12-25T18:01:08.370Z,5.50
2018-12-25T18:04:11.735Z,5.50
2018-12-25T18:07:14.863Z,5.50
2018-12-25T18:10:17.987Z,5.50
2018-12-25T18:13:22.174Z,5.50
2018-12-25T18:16:25.302Z,5.60
2018-12-25T18:19:28.359Z,5.60
2018-12-25T18:22:31.455Z,5.60
2018-12-25T18:25:34.545Z,5.60
2018-12-25T18:28:37.743Z,5.60
2018-12-25T18:31:40.836Z,5.70
2018-12-25T18:34:43.931Z,5.60
2018-12-25T18:37:47.055Z,5.70
2018-12-25T18:40:50.116Z,5.70
2018-12-25T18:43:53.342Z,5.70
2018-12-25T18:46:56.399Z,5.60
2018-12-25T18:49:59.529Z,5.70
2018-12-25T18:53:02.591Z,5.70
2018-12-25T18:56:05.827Z,5.70
2018-12-25T18:59:09.086Z,5.60
2018-12-25T19:02:12.391Z,5.60
2018-12-25T19:05:15.467Z,5.60
2018-12-25T19:08:18.606Z,5.50
2018-12-25T19:11:21.756Z,5.50
2018-12-25T19:14:24.847Z,5.40
2018-12-25T19:17:27.955Z,5.40
2018-12-25T19:20:31.143Z,5.40
2018-12-25T19:23:34.330Z,5.40
2018-12-25T19:26:37.428Z,5.40
2018-12-25T19:29:40.515Z,5.40
2018-12-25T19:32:43.894Z,5.50
2018-12-25T19:35:47.118Z,5.50
2018-12-25T19:38:50.207Z,5.50
2018-12-25T19:41:53.398Z,5.50
2018-12-25T19:44:56.495Z,5.50
2018-12-25T19:47:59.586Z,5.50
2018-12-25T19:51:02.782Z,5.50
2018-12-25T19:54:05.977Z,5.60
2018-12-25T19:57:09.966Z,5.60
2018-12-25T20:00:14.207Z,5.60
2018-12-25T20:03:43.107Z,5.50
2018-12-25T20:07:22.351Z,5.60
2018-12-25T20:11:04.122Z,5.60
2018-12-25T20:15:01.110Z,5.50
2018-12-25T20:18:35.634Z,5.50
2018-12-25T20:21:59.135Z,5.50
2018-12-25T20:25:46.282Z,5.40
2018-12-25T20:29:34.307Z,5.50
2018-12-25T20:33:25.219Z,5.50
2018-12-25T20:36:58.183Z,5.40
2018-12-25T20:40:38.686Z,5.50
2018-12-25T20:44:18.847Z,5.40
2018-12-25T20:47:58.263Z,5.40
2018-12-25T20:51:33.216Z,5.40
2018-12-25T20:55:36.027Z,5.40
2018-12-25T20:59:15.366Z,5.40
2018-12-25T21:02:55.493Z,5.40
2018-12-25T21:07:01.499Z,5.30
2018-12-25T21:10:40.735Z,5.30
2018-12-25T21:14:26.903Z,5.30
2018-12-25T21:18:19.767Z,5.30
2018-12-25T21:21:49.079Z,5.30
2018-12-25T21:25:29.334Z,5.20
2018-12-25T21:28:33.252Z,5.30
2018-12-25T21:31:36.338Z,5.30
2018-12-25T21:34:39.947Z,5.20
2018-12-25T21:37:43.547Z,5.30
2018-12-25T21:40:46.643Z,5.30
2018-12-25T21:43:51.279Z,5.30
2018-12-25T21:46:54.464Z,5.30
2018-12-25T21:49:57.598Z,5.30
2018-12-25T21:53:00.754Z,5.30
2018-12-25T21:56:04.083Z,5.30
2018-12-25T21:59:07.350Z,5.30
2018-12-25T22:02:10.443Z,5.30
2018-12-25T22:05:13.844Z,5.30
2018-12-25T22:08:16.715Z,5.30
2018-12-25T22:11:19.811Z,5.30
2018-12-25T22:14:22.907Z,5.40
2018-12-25T22:17:25.987Z,5.40
2018-12-25T22:20:34.826Z,5.40
2018-12-25T22:23:38.018Z,5.30
2018-12-25T22:26:41.111Z,5.40
2018-12-25T22:29:44.443Z,5.40
2018-12-25T22:32:47.740Z,5.40
2018-12-25T22:35:50.791Z,5.40
2018-12-25T22:38:53.886Z,5.40
2018-12-25T22:41:58.610Z,5.40
2018-12-25T22:45:02.019Z,5.50
2018-12-25T22:48:05.163Z,5.50
2018-12-25T22:51:08.315Z,5.40
2018-12-25T22:54:11.395Z,5.40
2018-12-25T22:57:14.491Z,5.50
2018-12-25T23:00:19.399Z,5.40
2018-12-25T23:03:22.524Z,5.50
2018-12-25T23:06:25.621Z,5.50
2018-12-25T23:09:28.813Z,5.40
2018-12-25T23:12:31.903Z,5.50
2018-12-25T23:15:35.105Z,5.40
2018-12-25T23:18:38.184Z,5.40
2018-12-25T23:21:41.290Z,5.40
2018-12-25T23:24:44.485Z,5.40
2018-12-25T23:27:47.704Z,5.40
2018-12-25T23:30:50.763Z,5.40
2018-12-25T23:33:53.901Z,5.50
2018-12-25T23:36:57.055Z,5.40
2018-12-25T23:40:00.286Z,5.40
2018-12-25T23:43:03.346Z,5.40
2018-12-25T23:46:06.607Z,5.40
2018-12-25T23:49:09.731Z,5.50
2018-12-25T23:52:12.955Z,5.50
2018-12-25T23:55:16.019Z,5.50
2018-12-25T23:58:19.151Z,5.50
